Aérodrome :







RETROUVEZ-NOUS SUR...

 
LOGIN :

S'inscrire | Disclaimer

   EN    FR    IT 

 









Légende :    VFR   VFR Marginal   IFR   IFR Intensif   IFR Très Intensif
Visi : 
Plafond : 
>= 8 km
>= 3000ft
5 à 8 km
1000 à 3000 ft
1500m à 5 km
500 à 1000 ft
800 à 1500m
200 à 500 ft
< 800m
< 200 ft
Symboles :   Orages  Brouillard  Fortes neiges  Fortes précipitations  Vent > 20 kt






- Altitude de l'aérodrome : 98 ft
- Code IATA : JBQ


MDJB - El Higuero

DERNIER METAR :
  • 211900Z 15010KT 9999 FEW020 BKN080 SCT300 28/22 Q1013

METARs EXPIRÉS :
  • 211800Z 15008KT 9999 SCT020 SCT300 29/23 Q1014
  • 211700Z 18010KT 9999 SCT020 SCT080 BKN300 28/23 Q1015

TAF TAF MDJB
Valide du 21 à 18h jusqu'au 22 à 18h UTC


211600Z 2118/2218 03008KT 9999 SCT020 BKN300
PROB30
TEMPO 2118/2200 7000 -RA BKN018 BKN070



MET'MAP, la Météo Aéronautique d'un coup d'oeil ! - Copyright ORBIFLY Décembre 2007 - Disclaimer

ORBIFLY MET'MAP TEAM :

Programmation & Développement : Alexandra Zaïnal
Sur une idée originale de : Baudouin d'Aumeries
Assistance à la programmation : Marc-Olivier Méhu
Soutien technique & logistique : Manuel Goepfert

Contact : metmap@orbifly.com




SOURCES & CREDITS :

   NOAA